Aeroporto :
LOGIN :

Iscrizione | Disclaimer

   EN    FR    IT 

 










Sommario :    VFR   VFR Marginale   IFR   IFR Intensivo   IFR Molto Intensivo
Visibilità : 
Base nubi : 
>= 8 km
>= 3000ft
5 / 8 km
1000 / 3000 ft
1500m / 5 km
500 / 1000 ft
800 / 1500m
200 / 500 ft
< 800m
< 200 ft
Simboli :   Temporali  Nebbia  Neve Forte  Precipitazioni Forti  Vento > 20 kt
SIGMETs :   Varie  Temporali  Ghiacco  Turbolenza  Onda orograficha  Ceneri Vulcaniche






- Altitudine del aeroporto : 364 ft
- Codice IATA : FRA


EDDF - Frankfurt Int.

ULTIMO METAR :
  • 062150Z VRB01KT CAVOK 09/01 Q1025 NOSIG

METARs OBSOLETI :
  • 062120Z VRB02KT CAVOK 10/02 Q1025 NOSIG
  • 062050Z 16003KT CAVOK 11/02 Q1025 NOSIG
  • 062020Z VRB01KT CAVOK 12/02 Q1024 NOSIG
  • 061950Z VRB02KT CAVOK 13/03 Q1024 NOSIG
  • 061920Z 19004KT 160V260 CAVOK 14/03 Q1024 NOSIG

TAF TAF EDDF
Valido dal 06 a 18 ore il 08 a 00 ore UTC


061700Z 0618/0724 19007KT CAVOK
BECMG 0620/0622 VRB03KT
BECMG 0706/0708 04007KT



MetMap, La meteo Aeronautica in un colpo d'occhio ! - Copyright ORBIFLY Dicembre 2007 - Disclaimer

ORBIFLY MET'MAP TEAM :

Programmazione e sviluppo : Alexandra Zaïnal
Concezione : Baudouin d'Aumeries
Aiuto per la programmazione : Marc-Olivier Méhu
Supporto tecnico e logistico : Manuel Goepfert
Aiuto per la traduzione : Arnaldo La Scala

Contatto : metmap@orbifly.com




FONTI E CREDITI :

   NOAA